createdAt,value
2022-12-05T00:03:44.243Z,2.00
2022-12-05T00:08:50.946Z,2.10
2022-12-05T00:14:00.799Z,2.10
2022-12-05T00:19:14.779Z,1.90
2022-12-05T00:24:22.300Z,1.90
2022-12-05T00:29:30.699Z,1.90
2022-12-05T00:34:40.025Z,1.80
2022-12-05T00:39:47.050Z,1.90
2022-12-05T00:44:53.975Z,1.90
2022-12-05T00:50:01.638Z,1.90
2022-12-05T00:55:09.266Z,1.90
2022-12-05T01:00:17.292Z,1.90
2022-12-05T01:05:24.377Z,1.90
2022-12-05T01:10:31.436Z,1.80
2022-12-05T01:15:42.669Z,1.60
2022-12-05T01:20:50.560Z,1.60
2022-12-05T01:25:59.195Z,1.60
2022-12-05T01:31:10.631Z,1.60
2022-12-05T01:36:18.756Z,1.70
2022-12-05T01:41:33.007Z,1.70
2022-12-05T01:46:47.236Z,1.70
2022-12-05T01:51:58.538Z,1.80
2022-12-05T01:57:09.261Z,1.90
2022-12-05T02:02:17.645Z,2.00
2022-12-05T02:07:25.689Z,1.90
2022-12-05T02:12:34.179Z,1.90
2022-12-05T02:18:00.170Z,2.00
2022-12-05T02:23:35.390Z,1.90
2022-12-05T02:28:58.529Z,2.00
2022-12-05T02:34:29.028Z,2.00
2022-12-05T02:40:17.504Z,2.00
2022-12-05T02:45:27.282Z,2.00
2022-12-05T02:50:37.941Z,2.00
2022-12-05T02:55:46.216Z,2.00
2022-12-05T03:00:56.753Z,1.90
2022-12-05T03:06:10.900Z,1.90
2022-12-05T03:11:17.754Z,2.00
2022-12-05T03:16:34.684Z,1.80
2022-12-05T03:21:48.632Z,1.80
2022-12-05T03:27:30.943Z,1.80
2022-12-05T03:32:56.945Z,1.80
2022-12-05T03:38:20.191Z,1.80
2022-12-05T03:43:53.601Z,1.60
2022-12-05T03:49:37.990Z,1.60
2022-12-05T03:54:54.944Z,1.60
2022-12-05T04:00:45.956Z,1.50
2022-12-05T04:05:59.535Z,1.60
2022-12-05T04:11:10.743Z,1.60
2022-12-05T04:16:57.346Z,1.60
2022-12-05T04:22:04.077Z,1.70
2022-12-05T04:27:35.583Z,1.70
2022-12-05T04:33:08.010Z,1.70
2022-12-05T04:38:22.020Z,1.60
2022-12-05T04:43:32.777Z,1.60
2022-12-05T04:48:42.549Z,1.50
2022-12-05T04:53:53.772Z,1.50
2022-12-05T04:59:03.802Z,1.70
2022-12-05T05:04:22.744Z,1.50
2022-12-05T05:09:29.621Z,1.40
2022-12-05T05:14:37.249Z,1.50
2022-12-05T05:19:45.958Z,1.60
2022-12-05T05:24:52.770Z,1.60
2022-12-05T05:30:01.976Z,1.50
2022-12-05T05:35:09.774Z,1.60
2022-12-05T05:40:18.596Z,1.30
2022-12-05T05:45:25.325Z,1.40
2022-12-05T05:50:35.246Z,1.30
2022-12-05T05:55:43.230Z,1.40
2022-12-05T06:00:50.633Z,1.50
2022-12-05T06:06:03.247Z,1.50
2022-12-05T06:11:14.429Z,1.40
2022-12-05T06:16:22.201Z,1.40
2022-12-05T06:21:29.904Z,1.30
2022-12-05T06:26:36.798Z,1.20
2022-12-05T06:31:44.547Z,1.20
2022-12-05T06:36:51.953Z,1.10
2022-12-05T06:41:58.787Z,1.10
2022-12-05T06:47:05.917Z,1.10
2022-12-05T06:52:13.417Z,1.30
2022-12-05T06:57:20.467Z,1.30
2022-12-05T07:02:28.883Z,1.30
2022-12-05T07:07:36.122Z,1.30
2022-12-05T07:12:43.162Z,1.40
2022-12-05T07:17:49.967Z,1.40
2022-12-05T07:22:56.811Z,1.60
2022-12-05T07:28:03.657Z,1.70
2022-12-05T07:33:10.340Z,1.60
2022-12-05T07:38:17.134Z,1.80
2022-12-05T07:43:31.264Z,2.00
2022-12-05T07:48:32.966Z,2.20
2022-12-05T07:53:44.700Z,2.10
2022-12-05T07:58:53.196Z,2.10
2022-12-05T08:04:02.094Z,2.20
2022-12-05T08:09:12.247Z,2.40
2022-12-05T08:14:19.287Z,2.30
2022-12-05T08:19:26.830Z,2.30
2022-12-05T08:24:36.348Z,2.20
2022-12-05T08:29:42.416Z,2.20
2022-12-05T08:34:49.893Z,2.30
2022-12-05T08:39:57.024Z,2.20
2022-12-05T08:45:04.812Z,2.30
2022-12-05T08:50:14.838Z,2.30
2022-12-05T08:55:21.796Z,2.40
2022-12-05T09:00:28.633Z,2.40
2022-12-05T09:05:35.866Z,2.30
2022-12-05T09:10:42.761Z,2.20
2022-12-05T09:15:50.226Z,2.20
2022-12-05T09:20:57.010Z,2.30
2022-12-05T09:26:03.941Z,2.90
2022-12-05T09:31:14.668Z,3.10
2022-12-05T09:36:25.815Z,3.00
2022-12-05T09:42:12.811Z,3.20
2022-12-05T09:48:02.854Z,3.30
2022-12-05T09:53:37.689Z,3.20
2022-12-05T09:58:54.387Z,3.20
2022-12-05T10:04:37.925Z,3.10
2022-12-05T10:09:58.250Z,3.20
2022-12-05T10:15:45.588Z,3.30
2022-12-05T10:21:13.384Z,3.30
2022-12-05T10:26:23.083Z,3.10
2022-12-05T10:31:34.326Z,3.20
2022-12-05T10:36:41.306Z,3.30
2022-12-05T10:41:48.511Z,3.30
2022-12-05T10:46:58.319Z,3.40
2022-12-05T10:52:06.040Z,3.50
2022-12-05T10:57:34.121Z,3.60
2022-12-05T11:02:42.872Z,3.50
2022-12-05T11:07:51.457Z,3.50
2022-12-05T11:13:01.218Z,3.80
2022-12-05T11:18:34.244Z,4.00
2022-12-05T11:23:41.268Z,4.20
2022-12-05T11:28:49.602Z,4.10
2022-12-05T11:34:23.954Z,4.20
2022-12-05T11:39:31.181Z,4.10
2022-12-05T11:44:57.553Z,4.10
2022-12-05T11:50:27.172Z,4.10
2022-12-05T11:55:47.304Z,4.00
2022-12-05T12:01:22.530Z,4.00
2022-12-05T12:06:55.086Z,3.90
2022-12-05T12:12:15.500Z,4.00
2022-12-05T12:17:44.326Z,4.20
2022-12-05T12:23:19.299Z,4.30
2022-12-05T12:28:42.647Z,4.40
2022-12-05T12:33:54.511Z,4.50
2022-12-05T12:39:14.355Z,4.40
2022-12-05T12:44:40.475Z,4.40
2022-12-05T12:50:03.685Z,4.20
2022-12-05T12:55:41.696Z,4.20
2022-12-05T13:01:36.556Z,4.30
2022-12-05T13:06:50.266Z,4.10
2022-12-05T13:12:01.252Z,4.20
2022-12-05T13:17:12.058Z,4.20
2022-12-05T13:22:25.615Z,3.90
2022-12-05T13:27:32.525Z,3.90
2022-12-05T13:32:42.960Z,3.90
2022-12-05T13:38:08.432Z,4.00
2022-12-05T13:43:19.539Z,4.00
2022-12-05T13:48:28.545Z,4.00
2022-12-05T13:53:42.424Z,3.80
2022-12-05T13:58:56.338Z,3.90
2022-12-05T14:04:05.538Z,3.90
2022-12-05T14:09:22.652Z,4.00
2022-12-05T14:14:59.899Z,3.90
2022-12-05T14:20:38.122Z,3.80
2022-12-05T14:25:59.563Z,3.90
2022-12-05T14:31:40.965Z,3.80
2022-12-05T14:37:13.650Z,3.70
2022-12-05T14:42:44.549Z,3.60
2022-12-05T14:48:04.724Z,3.40
2022-12-05T14:53:29.315Z,3.40
2022-12-05T14:59:01.326Z,3.40
2022-12-05T15:04:15.246Z,3.50
2022-12-05T15:09:59.557Z,3.50
2022-12-05T15:15:23.230Z,3.50
2022-12-05T15:20:51.692Z,3.60
2022-12-05T15:26:12.164Z,3.40
2022-12-05T15:31:10.208Z,3.40
2022-12-05T15:36:19.219Z,3.40
2022-12-05T15:41:27.370Z,3.40
2022-12-05T15:46:36.077Z,3.40
2022-12-05T15:51:44.362Z,3.40
2022-12-05T15:57:07.385Z,3.40
2022-12-05T16:02:27.120Z,3.40
2022-12-05T16:07:34.479Z,3.40
2022-12-05T16:12:44.891Z,3.30
2022-12-05T16:18:00.573Z,3.20
2022-12-05T16:23:26.706Z,3.30
2022-12-05T16:28:35.366Z,3.30
2022-12-05T16:33:44.056Z,3.20
2022-12-05T16:38:50.566Z,3.20
2022-12-05T16:43:57.823Z,3.20
2022-12-05T16:49:37.012Z,3.10
2022-12-05T16:54:49.399Z,3.10
2022-12-05T16:59:56.334Z,3.10
2022-12-05T17:05:06.633Z,3.20
2022-12-05T17:10:13.402Z,3.10
2022-12-05T17:15:21.897Z,3.20
2022-12-05T17:20:28.834Z,3.20
2022-12-05T17:25:39.858Z,3.20
2022-12-05T17:30:46.800Z,3.30
2022-12-05T17:35:53.633Z,3.00
2022-12-05T17:41:05.486Z,3.20
2022-12-05T17:46:10.148Z,3.10
2022-12-05T17:51:18.578Z,3.20
2022-12-05T17:56:25.337Z,3.10
2022-12-05T18:01:32.138Z,3.10
2022-12-05T18:06:39.812Z,3.10
2022-12-05T18:11:46.526Z,3.20
2022-12-05T18:16:53.422Z,3.30
2022-12-05T18:22:00.267Z,3.30
2022-12-05T18:27:08.798Z,3.20
2022-12-05T18:32:20.184Z,3.20
2022-12-05T18:37:24.105Z,3.40
2022-12-05T18:42:31.617Z,3.30
2022-12-05T18:47:38.835Z,3.30
2022-12-05T18:52:46.022Z,3.30
2022-12-05T18:57:53.258Z,3.30
2022-12-05T19:03:07.943Z,3.30
2022-12-05T19:08:12.011Z,3.10
2022-12-05T19:13:21.101Z,3.20
2022-12-05T19:18:28.058Z,3.00
2022-12-05T19:23:36.303Z,3.10
2022-12-05T19:28:43.645Z,3.20
2022-12-05T19:33:54.065Z,3.20
2022-12-05T19:39:01.917Z,3.10
2022-12-05T19:44:08.926Z,3.30
2022-12-05T19:49:22.861Z,3.20
2022-12-05T19:54:32.350Z,3.20
2022-12-05T19:59:39.797Z,3.30
2022-12-05T20:04:48.442Z,3.20
2022-12-05T20:09:57.136Z,3.20
2022-12-05T20:15:04.500Z,3.20
2022-12-05T20:20:11.981Z,3.20
2022-12-05T20:25:18.931Z,3.20
2022-12-05T20:30:29.241Z,3.20
2022-12-05T20:35:39.524Z,3.10
2022-12-05T20:40:46.455Z,3.20
2022-12-05T20:45:55.782Z,3.20
2022-12-05T20:51:12.993Z,3.10
2022-12-05T20:56:26.670Z,3.00
2022-12-05T21:01:37.193Z,2.80
2022-12-05T21:06:48.892Z,2.80
2022-12-05T21:11:56.194Z,2.70
2022-12-05T21:17:03.751Z,2.70
2022-12-05T21:22:10.570Z,2.50
2022-12-05T21:27:17.479Z,2.40
2022-12-05T21:32:24.210Z,2.30
2022-12-05T21:37:31.024Z,2.20
2022-12-05T21:42:37.877Z,2.20
2022-12-05T21:47:46.708Z,2.20
2022-12-05T21:52:53.828Z,2.10
2022-12-05T21:58:00.715Z,2.00
2022-12-05T22:03:08.596Z,1.90
2022-12-05T22:08:18.330Z,1.60
2022-12-05T22:13:25.535Z,1.70
2022-12-05T22:18:33.647Z,1.80
2022-12-05T22:23:40.690Z,1.90
2022-12-05T22:28:48.691Z,1.80
2022-12-05T22:33:55.707Z,1.90
2022-12-05T22:39:03.315Z,2.00
2022-12-05T22:44:10.107Z,2.00
2022-12-05T22:49:23.722Z,2.00
2022-12-05T22:54:30.226Z,2.10
2022-12-05T22:59:39.101Z,2.00
2022-12-05T23:04:46.795Z,2.10
2022-12-05T23:09:53.766Z,2.10
2022-12-05T23:15:01.162Z,2.00
2022-12-05T23:20:09.497Z,1.90
2022-12-05T23:25:16.825Z,2.10
2022-12-05T23:30:24.176Z,2.20
2022-12-05T23:35:31.061Z,2.30
2022-12-05T23:40:38.080Z,2.30
2022-12-05T23:45:45.455Z,2.20
2022-12-05T23:51:10.583Z,2.20
2022-12-05T23:56:21.371Z,2.00
